الصفحة الرئيسية
METAR-TAF:

METAR-TAF

مطار :

Tinian, جزر ماريانا, الولايات المتحدة

دائرة عرض: 14-59N, خط طول: 145-37E, ارتفاع: 82 متر

مراقبة الطقس الحالي

تاريخ ووقت الإصدار 11ساعات و 34 دقيقة قبل الساعة 04:50UTC
ريح 10 عقدة من الشرق
درجة الحرارة 30°درجة مئوية
الرطوبة 66%
ضغط 1011 hPa
الرؤية: 11.3 كم
غيوم متفرقة على ارتفاع 1500 قدم

METAR: PGWT 060450Z 09010KT 7SM SCT015 30/23 A2985 RMK LAST

زمن: 02:24 (16:24 UTC)

توقعات

تاريخ ووقت الإصدار 16ساعات و 53 دقيقة قبل الساعة 23:31UTC
التوقعات صالحة من06 الساعة 00 UTC إلى 06 الساعة 24 UTC
ريح 13 عقدة من الشرق
الرؤية: 10 كم
غيوم متفرقة على ارتفاع 1600 قدم

TAF: PGWT 052331Z 0600/0624 09013KT P6SM SCT016

أرصاد الطقس والتوقعات من أكثر من 4000 مطار (تقارير الطقس للمطار METAR والتنبؤ بالطقس بالمطارTAF).

المحطات المتاحة هي النقط الصفراء والحمراء على الخريطة.

حرك المؤشر فوق النقطة لمعرفة اسم المحطة.

ثم انقر لمعرفة أرصاد وتوقعات الطقس.

لتغيير الخارطة: اضغط على الأزرار الخضراء مع رمز الصليب الأسود للتكبير. على الزر الأخضر مع شرطة للتصغير، أو على الأسهم الخضراء للخرائط المجاورة.


METAR-TAF: